Terminal Aerodrome Forecast
Issued by NWS

Home | Current Version | Previous Version | Text Only | Print | Product List | Glossary On
Versions: 1 2 3 4 5 6 7 8 9 10 11 12 13 14 15 16 17
000
FTUS46 KPDT 202320
TAFPSC
TAF
KPSC 202320Z 2100/2124 03004KT P6SM SCT050 OVC090
     FM210200 02005KT P6SM VCSH OVC060
     FM211200 35005KT P6SM SKC=

USA.gov is the U.S. government's official web portal to all federal, state and local government web resources and services.